sensor_id;sensor_type;location;lat;lon;timestamp;temperature;humidity
80238;DHT22;69544;42.138;24.742;2023-05-19T00:00:42;20.20;45.80
80238;DHT22;69544;42.138;24.742;2023-05-19T00:03:09;20.20;45.80
80238;DHT22;69544;42.138;24.742;2023-05-19T00:05:38;20.20;45.70
80238;DHT22;69544;42.138;24.742;2023-05-19T00:08:10;20.30;45.80
80238;DHT22;69544;42.138;24.742;2023-05-19T00:10:36;20.30;45.70
80238;DHT22;69544;42.138;24.742;2023-05-19T00:13:02;20.20;45.60
80238;DHT22;69544;42.138;24.742;2023-05-19T00:15:29;20.20;45.70
80238;DHT22;69544;42.138;24.742;2023-05-19T00:17:54;20.20;45.70
80238;DHT22;69544;42.138;24.742;2023-05-19T00:20:21;20.20;45.70
80238;DHT22;69544;42.138;24.742;2023-05-19T00:22:47;20.20;45.70
80238;DHT22;69544;42.138;24.742;2023-05-19T00:25:12;20.20;45.80
80238;DHT22;69544;42.138;24.742;2023-05-19T00:27:38;20.20;45.80
80238;DHT22;69544;42.138;24.742;2023-05-19T00:30:04;20.20;45.70
80238;DHT22;69544;42.138;24.742;2023-05-19T00:32:30;20.20;45.60
80238;DHT22;69544;42.138;24.742;2023-05-19T00:34:56;20.20;45.70
80238;DHT22;69544;42.138;24.742;2023-05-19T00:37:21;20.20;45.60
80238;DHT22;69544;42.138;24.742;2023-05-19T00:39:48;20.20;45.60
80238;DHT22;69544;42.138;24.742;2023-05-19T00:42:13;20.20;45.60
80238;DHT22;69544;42.138;24.742;2023-05-19T00:44:40;20.20;45.70
80238;DHT22;69544;42.138;24.742;2023-05-19T00:47:06;20.20;45.60
80238;DHT22;69544;42.138;24.742;2023-05-19T00:49:32;20.20;45.60
80238;DHT22;69544;42.138;24.742;2023-05-19T00:51:59;20.20;45.60
80238;DHT22;69544;42.138;24.742;2023-05-19T00:54:26;20.20;45.60
80238;DHT22;69544;42.138;24.742;2023-05-19T00:56:53;20.20;45.60
80238;DHT22;69544;42.138;24.742;2023-05-19T00:59:19;20.20;46.70
80238;DHT22;69544;42.138;24.742;2023-05-19T01:01:46;20.20;45.60
80238;DHT22;69544;42.138;24.742;2023-05-19T01:04:17;20.20;45.50
80238;DHT22;69544;42.138;24.742;2023-05-19T01:06:48;20.20;45.60
80238;DHT22;69544;42.138;24.742;2023-05-19T01:09:20;20.20;45.60
80238;DHT22;69544;42.138;24.742;2023-05-19T01:11:47;20.20;45.60
80238;DHT22;69544;42.138;24.742;2023-05-19T01:14:12;20.20;45.60
80238;DHT22;69544;42.138;24.742;2023-05-19T01:16:41;20.20;45.50
80238;DHT22;69544;42.138;24.742;2023-05-19T01:30:48;20.20;45.60
80238;DHT22;69544;42.138;24.742;2023-05-19T01:33:16;20.20;45.50
80238;DHT22;69544;42.138;24.742;2023-05-19T01:35:44;20.20;45.50
80238;DHT22;69544;42.138;24.742;2023-05-19T01:38:13;20.20;45.60
80238;DHT22;69544;42.138;24.742;2023-05-19T01:40:42;20.20;45.60
80238;DHT22;69544;42.138;24.742;2023-05-19T01:43:10;20.20;45.50
80238;DHT22;69544;42.138;24.742;2023-05-19T01:45:36;20.20;45.50
80238;DHT22;69544;42.138;24.742;2023-05-19T01:48:03;20.20;45.40
80238;DHT22;69544;42.138;24.742;2023-05-19T01:50:30;20.20;45.40
80238;DHT22;69544;42.138;24.742;2023-05-19T01:52:57;20.20;45.40
80238;DHT22;69544;42.138;24.742;2023-05-19T01:55:23;20.20;45.40
80238;DHT22;69544;42.138;24.742;2023-05-19T01:57:59;20.20;45.40
80238;DHT22;69544;42.138;24.742;2023-05-19T02:08:32;20.20;46.40
80238;DHT22;69544;42.138;24.742;2023-05-19T02:11:09;20.20;45.40
80238;DHT22;69544;42.138;24.742;2023-05-19T02:13:42;20.20;45.40
80238;DHT22;69544;42.138;24.742;2023-05-19T02:16:10;20.20;45.30
80238;DHT22;69544;42.138;24.742;2023-05-19T02:18:36;20.20;45.40
80238;DHT22;69544;42.138;24.742;2023-05-19T02:21:04;20.20;45.40
80238;DHT22;69544;42.138;24.742;2023-05-19T02:23:30;20.20;45.40
80238;DHT22;69544;42.138;24.742;2023-05-19T02:25:55;20.10;45.40
80238;DHT22;69544;42.138;24.742;2023-05-19T02:28:21;20.10;45.30
80238;DHT22;69544;42.138;24.742;2023-05-19T02:30:47;20.20;45.40
80238;DHT22;69544;42.138;24.742;2023-05-19T02:33:13;20.10;45.30
80238;DHT22;69544;42.138;24.742;2023-05-19T02:35:38;20.10;45.30
80238;DHT22;69544;42.138;24.742;2023-05-19T02:38:04;20.20;45.40
80238;DHT22;69544;42.138;24.742;2023-05-19T02:40:30;20.10;45.30
80238;DHT22;69544;42.138;24.742;2023-05-19T02:42:55;20.20;45.20
80238;DHT22;69544;42.138;24.742;2023-05-19T02:45:21;20.10;45.30
80238;DHT22;69544;42.138;24.742;2023-05-19T02:47:47;20.20;45.30
80238;DHT22;69544;42.138;24.742;2023-05-19T02:50:12;20.20;45.30
80238;DHT22;69544;42.138;24.742;2023-05-19T02:52:38;20.20;45.20
80238;DHT22;69544;42.138;24.742;2023-05-19T02:55:04;20.10;45.20
80238;DHT22;69544;42.138;24.742;2023-05-19T02:57:33;20.20;45.20
80238;DHT22;69544;42.138;24.742;2023-05-19T02:59:59;20.20;45.20
80238;DHT22;69544;42.138;24.742;2023-05-19T03:02:25;20.20;45.20
80238;DHT22;69544;42.138;24.742;2023-05-19T03:04:50;20.10;45.10
80238;DHT22;69544;42.138;24.742;2023-05-19T03:07:16;20.10;45.10
80238;DHT22;69544;42.138;24.742;2023-05-19T03:09:42;20.10;45.10
80238;DHT22;69544;42.138;24.742;2023-05-19T03:12:07;20.10;45.10
80238;DHT22;69544;42.138;24.742;2023-05-19T03:14:34;20.10;45.10
80238;DHT22;69544;42.138;24.742;2023-05-19T03:17:03;20.10;45.20
80238;DHT22;69544;42.138;24.742;2023-05-19T03:19:29;20.10;45.20
80238;DHT22;69544;42.138;24.742;2023-05-19T03:21:56;20.10;45.20
80238;DHT22;69544;42.138;24.742;2023-05-19T03:24:22;20.10;45.20
80238;DHT22;69544;42.138;24.742;2023-05-19T03:26:48;20.10;45.20
80238;DHT22;69544;42.138;24.742;2023-05-19T03:29:13;20.10;45.20
80238;DHT22;69544;42.138;24.742;2023-05-19T03:31:42;20.10;45.20
80238;DHT22;69544;42.138;24.742;2023-05-19T03:34:08;20.10;45.10
80238;DHT22;69544;42.138;24.742;2023-05-19T03:36:33;20.10;45.10
80238;DHT22;69544;42.138;24.742;2023-05-19T03:39:06;20.10;45.10
80238;DHT22;69544;42.138;24.742;2023-05-19T03:41:32;20.10;45.10
80238;DHT22;69544;42.138;24.742;2023-05-19T03:43:58;20.10;45.20
80238;DHT22;69544;42.138;24.742;2023-05-19T03:46:23;20.10;45.10
80238;DHT22;69544;42.138;24.742;2023-05-19T03:48:49;20.10;45.10
80238;DHT22;69544;42.138;24.742;2023-05-19T03:51:15;20.10;45.20
80238;DHT22;69544;42.138;24.742;2023-05-19T03:53:41;20.10;45.20
80238;DHT22;69544;42.138;24.742;2023-05-19T03:56:07;20.10;45.20
80238;DHT22;69544;42.138;24.742;2023-05-19T03:58:33;20.10;45.10
80238;DHT22;69544;42.138;24.742;2023-05-19T04:00:58;20.10;45.10
80238;DHT22;69544;42.138;24.742;2023-05-19T04:03:24;20.10;45.10
80238;DHT22;69544;42.138;24.742;2023-05-19T04:05:51;20.10;45.10
80238;DHT22;69544;42.138;24.742;2023-05-19T04:08:17;20.10;45.10
80238;DHT22;69544;42.138;24.742;2023-05-19T04:10:42;20.10;45.00
80238;DHT22;69544;42.138;24.742;2023-05-19T04:13:08;20.10;45.00
80238;DHT22;69544;42.138;24.742;2023-05-19T04:15:34;20.10;45.00
80238;DHT22;69544;42.138;24.742;2023-05-19T04:18:00;20.10;45.10
80238;DHT22;69544;42.138;24.742;2023-05-19T04:20:25;20.10;45.00
80238;DHT22;69544;42.138;24.742;2023-05-19T04:22:51;20.10;45.00
80238;DHT22;69544;42.138;24.742;2023-05-19T04:25:17;20.10;44.90
80238;DHT22;69544;42.138;24.742;2023-05-19T04:27:44;20.10;44.40
80238;DHT22;69544;42.138;24.742;2023-05-19T04:30:10;20.10;44.00
80238;DHT22;69544;42.138;24.742;2023-05-19T04:32:36;20.10;43.80
80238;DHT22;69544;42.138;24.742;2023-05-19T04:35:04;20.00;43.80
80238;DHT22;69544;42.138;24.742;2023-05-19T04:37:30;20.00;43.70
80238;DHT22;69544;42.138;24.742;2023-05-19T04:39:55;20.00;43.70
80238;DHT22;69544;42.138;24.742;2023-05-19T04:42:21;20.00;43.60
80238;DHT22;69544;42.138;24.742;2023-05-19T04:44:50;20.00;43.70
80238;DHT22;69544;42.138;24.742;2023-05-19T04:47:16;20.00;43.70
80238;DHT22;69544;42.138;24.742;2023-05-19T04:49:42;20.00;43.60
80238;DHT22;69544;42.138;24.742;2023-05-19T04:52:10;20.00;43.80
80238;DHT22;69544;42.138;24.742;2023-05-19T04:54:37;19.90;43.80
80238;DHT22;69544;42.138;24.742;2023-05-19T04:57:03;19.90;43.90
80238;DHT22;69544;42.138;24.742;2023-05-19T04:59:28;19.90;43.90
80238;DHT22;69544;42.138;24.742;2023-05-19T05:01:55;19.90;44.10
80238;DHT22;69544;42.138;24.742;2023-05-19T05:04:22;19.90;44.10
80238;DHT22;69544;42.138;24.742;2023-05-19T05:06:47;19.90;44.10
80238;DHT22;69544;42.138;24.742;2023-05-19T05:09:14;19.90;44.20
80238;DHT22;69544;42.138;24.742;2023-05-19T05:11:41;19.90;44.20
80238;DHT22;69544;42.138;24.742;2023-05-19T05:14:07;19.90;44.10
80238;DHT22;69544;42.138;24.742;2023-05-19T05:16:33;19.90;44.30
80238;DHT22;69544;42.138;24.742;2023-05-19T05:19:00;19.90;44.20
80238;DHT22;69544;42.138;24.742;2023-05-19T05:21:26;19.90;44.30
80238;DHT22;69544;42.138;24.742;2023-05-19T05:23:52;19.90;44.20
80238;DHT22;69544;42.138;24.742;2023-05-19T05:26:19;19.90;44.30
80238;DHT22;69544;42.138;24.742;2023-05-19T05:28:49;19.90;44.40
80238;DHT22;69544;42.138;24.742;2023-05-19T05:31:15;19.90;44.40
80238;DHT22;69544;42.138;24.742;2023-05-19T05:33:43;19.90;44.50
80238;DHT22;69544;42.138;24.742;2023-05-19T05:36:08;20.00;44.50
80238;DHT22;69544;42.138;24.742;2023-05-19T05:38:34;19.90;44.50
80238;DHT22;69544;42.138;24.742;2023-05-19T05:41:00;19.90;44.50
80238;DHT22;69544;42.138;24.742;2023-05-19T05:43:28;19.90;44.70
80238;DHT22;69544;42.138;24.742;2023-05-19T05:45:54;19.90;44.80
80238;DHT22;69544;42.138;24.742;2023-05-19T05:48:20;19.90;45.00
80238;DHT22;69544;42.138;24.742;2023-05-19T05:50:47;19.90;45.00
80238;DHT22;69544;42.138;24.742;2023-05-19T05:53:17;19.90;44.90
80238;DHT22;69544;42.138;24.742;2023-05-19T05:55:47;19.90;45.00
80238;DHT22;69544;42.138;24.742;2023-05-19T05:58:13;19.90;44.90
80238;DHT22;69544;42.138;24.742;2023-05-19T06:00:40;19.90;44.90
80238;DHT22;69544;42.138;24.742;2023-05-19T06:03:10;20.00;44.90
80238;DHT22;69544;42.138;24.742;2023-05-19T06:05:36;20.00;44.90
80238;DHT22;69544;42.138;24.742;2023-05-19T06:08:02;20.00;45.90
80238;DHT22;69544;42.138;24.742;2023-05-19T06:10:28;20.00;44.80
80238;DHT22;69544;42.138;24.742;2023-05-19T06:12:54;20.00;44.80
80238;DHT22;69544;42.138;24.742;2023-05-19T06:15:20;20.00;44.80
80238;DHT22;69544;42.138;24.742;2023-05-19T06:17:46;20.00;44.70
80238;DHT22;69544;42.138;24.742;2023-05-19T06:20:12;20.00;44.80
80238;DHT22;69544;42.138;24.742;2023-05-19T06:22:38;20.00;44.80
80238;DHT22;69544;42.138;24.742;2023-05-19T06:25:05;20.00;44.80
80238;DHT22;69544;42.138;24.742;2023-05-19T06:27:31;20.00;44.80
80238;DHT22;69544;42.138;24.742;2023-05-19T06:29:57;20.00;44.80
80238;DHT22;69544;42.138;24.742;2023-05-19T06:32:22;20.00;44.80
80238;DHT22;69544;42.138;24.742;2023-05-19T06:34:48;20.00;44.90
80238;DHT22;69544;42.138;24.742;2023-05-19T06:37:20;20.00;46.00
80238;DHT22;69544;42.138;24.742;2023-05-19T06:39:48;20.00;44.80
80238;DHT22;69544;42.138;24.742;2023-05-19T06:42:15;20.00;44.80
80238;DHT22;69544;42.138;24.742;2023-05-19T06:44:41;20.00;44.80
80238;DHT22;69544;42.138;24.742;2023-05-19T06:47:07;20.00;44.70
80238;DHT22;69544;42.138;24.742;2023-05-19T06:49:32;20.00;44.60
80238;DHT22;69544;42.138;24.742;2023-05-19T06:51:58;20.10;44.80
80238;DHT22;69544;42.138;24.742;2023-05-19T06:54:23;20.10;44.70
80238;DHT22;69544;42.138;24.742;2023-05-19T06:56:49;20.10;44.70
80238;DHT22;69544;42.138;24.742;2023-05-19T06:59:15;20.10;44.70
80238;DHT22;69544;42.138;24.742;2023-05-19T07:01:41;20.10;44.70
80238;DHT22;69544;42.138;24.742;2023-05-19T07:04:06;20.10;44.70
80238;DHT22;69544;42.138;24.742;2023-05-19T07:06:32;20.10;44.70
80238;DHT22;69544;42.138;24.742;2023-05-19T07:08:58;20.10;44.70
80238;DHT22;69544;42.138;24.742;2023-05-19T07:11:23;20.10;44.70
80238;DHT22;69544;42.138;24.742;2023-05-19T07:13:50;20.10;44.70
80238;DHT22;69544;42.138;24.742;2023-05-19T07:16:16;20.10;44.80
80238;DHT22;69544;42.138;24.742;2023-05-19T07:18:41;20.10;44.80
80238;DHT22;69544;42.138;24.742;2023-05-19T07:21:07;20.10;44.80
80238;DHT22;69544;42.138;24.742;2023-05-19T07:23:33;20.10;44.80
80238;DHT22;69544;42.138;24.742;2023-05-19T07:25:58;20.10;44.90
80238;DHT22;69544;42.138;24.742;2023-05-19T07:28:24;20.10;44.80
80238;DHT22;69544;42.138;24.742;2023-05-19T07:30:50;20.10;44.80
80238;DHT22;69544;42.138;24.742;2023-05-19T07:33:16;20.10;44.70
80238;DHT22;69544;42.138;24.742;2023-05-19T07:35:41;20.20;44.70
80238;DHT22;69544;42.138;24.742;2023-05-19T07:38:08;20.20;44.60
80238;DHT22;69544;42.138;24.742;2023-05-19T07:40:34;20.20;44.70
80238;DHT22;69544;42.138;24.742;2023-05-19T07:43:00;20.20;44.70
80238;DHT22;69544;42.138;24.742;2023-05-19T07:45:25;20.20;44.70
80238;DHT22;69544;42.138;24.742;2023-05-19T07:47:52;20.20;44.70
80238;DHT22;69544;42.138;24.742;2023-05-19T07:50:18;20.20;44.60
80238;DHT22;69544;42.138;24.742;2023-05-19T07:52:44;20.20;44.50
80238;DHT22;69544;42.138;24.742;2023-05-19T07:55:10;20.20;44.80
80238;DHT22;69544;42.138;24.742;2023-05-19T07:57:36;20.20;45.00
80238;DHT22;69544;42.138;24.742;2023-05-19T08:00:02;20.30;45.00
80238;DHT22;69544;42.138;24.742;2023-05-19T08:02:32;20.30;45.10
80238;DHT22;69544;42.138;24.742;2023-05-19T08:04:58;20.40;45.30
80238;DHT22;69544;42.138;24.742;2023-05-19T08:07:24;20.40;45.30
80238;DHT22;69544;42.138;24.742;2023-05-19T08:09:49;20.40;45.30
80238;DHT22;69544;42.138;24.742;2023-05-19T08:12:15;20.40;45.20
80238;DHT22;69544;42.138;24.742;2023-05-19T08:14:41;20.40;45.30
80238;DHT22;69544;42.138;24.742;2023-05-19T08:17:06;20.50;45.50
80238;DHT22;69544;42.138;24.742;2023-05-19T08:19:32;20.50;45.60
80238;DHT22;69544;42.138;24.742;2023-05-19T08:21:58;20.50;45.60
80238;DHT22;69544;42.138;24.742;2023-05-19T08:24:26;20.60;45.60
80238;DHT22;69544;42.138;24.742;2023-05-19T08:26:54;20.60;45.50
80238;DHT22;69544;42.138;24.742;2023-05-19T08:29:20;20.60;45.40
80238;DHT22;69544;42.138;24.742;2023-05-19T08:31:45;20.60;45.40
80238;DHT22;69544;42.138;24.742;2023-05-19T08:34:11;20.70;45.50
80238;DHT22;69544;42.138;24.742;2023-05-19T08:36:37;20.70;45.50
80238;DHT22;69544;42.138;24.742;2023-05-19T08:39:03;20.70;45.50
80238;DHT22;69544;42.138;24.742;2023-05-19T08:41:29;20.70;45.40
80238;DHT22;69544;42.138;24.742;2023-05-19T08:43:54;20.70;46.00
80238;DHT22;69544;42.138;24.742;2023-05-19T08:46:21;20.70;45.40
80238;DHT22;69544;42.138;24.742;2023-05-19T08:48:59;20.70;45.40
80238;DHT22;69544;42.138;24.742;2023-05-19T08:51:40;20.80;45.40
80238;DHT22;69544;42.138;24.742;2023-05-19T08:54:14;20.70;45.20
80238;DHT22;69544;42.138;24.742;2023-05-19T08:56:42;20.70;45.20
80238;DHT22;69544;42.138;24.742;2023-05-19T08:59:09;20.70;45.30
80238;DHT22;69544;42.138;24.742;2023-05-19T09:01:36;20.70;45.50
80238;DHT22;69544;42.138;24.742;2023-05-19T09:04:02;20.80;45.40
80238;DHT22;69544;42.138;24.742;2023-05-19T09:06:28;20.80;45.50
80238;DHT22;69544;42.138;24.742;2023-05-19T09:08:56;20.80;45.40
80238;DHT22;69544;42.138;24.742;2023-05-19T09:11:22;20.80;45.40
80238;DHT22;69544;42.138;24.742;2023-05-19T09:13:48;20.80;45.40
80238;DHT22;69544;42.138;24.742;2023-05-19T09:16:14;20.80;45.40
80238;DHT22;69544;42.138;24.742;2023-05-19T09:18:53;20.70;45.30
80238;DHT22;69544;42.138;24.742;2023-05-19T09:21:29;20.70;45.20
80238;DHT22;69544;42.138;24.742;2023-05-19T09:24:08;20.70;45.30
80238;DHT22;69544;42.138;24.742;2023-05-19T09:26:38;20.70;45.20
80238;DHT22;69544;42.138;24.742;2023-05-19T09:31:36;20.70;45.10
80238;DHT22;69544;42.138;24.742;2023-05-19T09:34:02;20.70;45.10
80238;DHT22;69544;42.138;24.742;2023-05-19T09:36:28;20.70;45.10
80238;DHT22;69544;42.138;24.742;2023-05-19T09:38:55;20.70;45.10
80238;DHT22;69544;42.138;24.742;2023-05-19T09:41:21;20.70;45.00
80238;DHT22;69544;42.138;24.742;2023-05-19T09:43:53;20.70;45.00
80238;DHT22;69544;42.138;24.742;2023-05-19T09:46:24;20.70;44.90
80238;DHT22;69544;42.138;24.742;2023-05-19T09:48:58;20.70;45.00
80238;DHT22;69544;42.138;24.742;2023-05-19T09:51:24;20.70;44.90
80238;DHT22;69544;42.138;24.742;2023-05-19T09:53:51;20.70;44.80
80238;DHT22;69544;42.138;24.742;2023-05-19T09:56:17;20.70;44.80
80238;DHT22;69544;42.138;24.742;2023-05-19T09:58:48;20.70;44.80
80238;DHT22;69544;42.138;24.742;2023-05-19T10:01:14;20.70;44.80
80238;DHT22;69544;42.138;24.742;2023-05-19T10:03:40;20.70;44.80
80238;DHT22;69544;42.138;24.742;2023-05-19T10:06:07;20.70;45.10
80238;DHT22;69544;42.138;24.742;2023-05-19T10:08:33;20.70;45.20
80238;DHT22;69544;42.138;24.742;2023-05-19T10:11:00;20.80;45.20
80238;DHT22;69544;42.138;24.742;2023-05-19T10:13:28;20.80;45.20
80238;DHT22;69544;42.138;24.742;2023-05-19T10:15:54;20.80;45.20
80238;DHT22;69544;42.138;24.742;2023-05-19T10:18:22;20.80;45.00
80238;DHT22;69544;42.138;24.742;2023-05-19T10:20:51;20.80;44.80
80238;DHT22;69544;42.138;24.742;2023-05-19T10:23:17;20.80;44.80
80238;DHT22;69544;42.138;24.742;2023-05-19T10:25:43;20.80;44.80
80238;DHT22;69544;42.138;24.742;2023-05-19T10:28:14;20.80;44.80
80238;DHT22;69544;42.138;24.742;2023-05-19T10:30:44;20.80;44.90
80238;DHT22;69544;42.138;24.742;2023-05-19T10:33:14;20.70;44.80
80238;DHT22;69544;42.138;24.742;2023-05-19T10:35:56;20.70;44.80
80238;DHT22;69544;42.138;24.742;2023-05-19T10:46:25;20.80;44.70
80238;DHT22;69544;42.138;24.742;2023-05-19T10:48:52;20.70;44.70
80238;DHT22;69544;42.138;24.742;2023-05-19T10:51:18;20.70;44.60
80238;DHT22;69544;42.138;24.742;2023-05-19T10:53:44;20.70;44.60
80238;DHT22;69544;42.138;24.742;2023-05-19T10:56:32;20.70;44.60
80238;DHT22;69544;42.138;24.742;2023-05-19T10:59:01;20.70;44.60
80238;DHT22;69544;42.138;24.742;2023-05-19T11:01:35;20.70;44.60
80238;DHT22;69544;42.138;24.742;2023-05-19T11:04:08;20.70;44.60
80238;DHT22;69544;42.138;24.742;2023-05-19T11:06:38;20.70;44.60
80238;DHT22;69544;42.138;24.742;2023-05-19T11:09:17;20.70;44.60
80238;DHT22;69544;42.138;24.742;2023-05-19T11:11:47;20.70;44.50
80238;DHT22;69544;42.138;24.742;2023-05-19T11:14:17;20.70;44.50
80238;DHT22;69544;42.138;24.742;2023-05-19T11:16:49;20.70;44.50
80238;DHT22;69544;42.138;24.742;2023-05-19T11:19:32;20.70;44.50
80238;DHT22;69544;42.138;24.742;2023-05-19T11:22:12;20.80;44.40
80238;DHT22;69544;42.138;24.742;2023-05-19T11:24:45;20.80;44.40
80238;DHT22;69544;42.138;24.742;2023-05-19T11:27:29;20.80;44.30
80238;DHT22;69544;42.138;24.742;2023-05-19T11:30:16;20.90;44.30
80238;DHT22;69544;42.138;24.742;2023-05-19T11:32:46;20.90;44.20
80238;DHT22;69544;42.138;24.742;2023-05-19T11:35:12;20.90;44.20
80238;DHT22;69544;42.138;24.742;2023-05-19T11:37:39;20.90;44.10
80238;DHT22;69544;42.138;24.742;2023-05-19T11:40:07;21.00;44.10
80238;DHT22;69544;42.138;24.742;2023-05-19T11:42:34;21.00;43.90
80238;DHT22;69544;42.138;24.742;2023-05-19T11:45:00;21.00;43.80
80238;DHT22;69544;42.138;24.742;2023-05-19T11:47:27;21.10;43.80
80238;DHT22;69544;42.138;24.742;2023-05-19T11:49:54;21.10;43.70
80238;DHT22;69544;42.138;24.742;2023-05-19T11:52:24;21.10;43.80
80238;DHT22;69544;42.138;24.742;2023-05-19T11:54:50;21.10;43.70
80238;DHT22;69544;42.138;24.742;2023-05-19T11:57:16;21.20;43.60
80238;DHT22;69544;42.138;24.742;2023-05-19T11:59:42;21.20;43.50
80238;DHT22;69544;42.138;24.742;2023-05-19T12:02:18;21.20;43.40
80238;DHT22;69544;42.138;24.742;2023-05-19T12:04:44;21.30;43.30
80238;DHT22;69544;42.138;24.742;2023-05-19T12:07:11;21.30;43.20
80238;DHT22;69544;42.138;24.742;2023-05-19T12:09:38;21.40;43.00
80238;DHT22;69544;42.138;24.742;2023-05-19T12:12:04;21.40;43.00
80238;DHT22;69544;42.138;24.742;2023-05-19T12:14:30;21.40;43.20
80238;DHT22;69544;42.138;24.742;2023-05-19T12:16:56;21.40;42.80
80238;DHT22;69544;42.138;24.742;2023-05-19T12:19:25;21.50;42.70
80238;DHT22;69544;42.138;24.742;2023-05-19T12:21:51;21.50;42.70
80238;DHT22;69544;42.138;24.742;2023-05-19T12:24:19;21.50;42.70
80238;DHT22;69544;42.138;24.742;2023-05-19T12:26:45;21.50;42.60
80238;DHT22;69544;42.138;24.742;2023-05-19T12:29:12;21.60;42.50
80238;DHT22;69544;42.138;24.742;2023-05-19T12:31:38;21.60;42.40
80238;DHT22;69544;42.138;24.742;2023-05-19T12:34:04;21.70;42.40
80238;DHT22;69544;42.138;24.742;2023-05-19T12:36:31;21.70;42.20
80238;DHT22;69544;42.138;24.742;2023-05-19T12:38:57;21.70;42.20
80238;DHT22;69544;42.138;24.742;2023-05-19T12:41:26;21.80;42.10
80238;DHT22;69544;42.138;24.742;2023-05-19T12:43:54;21.80;42.10
80238;DHT22;69544;42.138;24.742;2023-05-19T12:46:19;21.80;42.00
80238;DHT22;69544;42.138;24.742;2023-05-19T12:48:46;21.80;42.10
80238;DHT22;69544;42.138;24.742;2023-05-19T12:51:19;21.90;41.90
80238;DHT22;69544;42.138;24.742;2023-05-19T12:53:47;21.90;41.90
80238;DHT22;69544;42.138;24.742;2023-05-19T12:56:14;22.00;41.90
80238;DHT22;69544;42.138;24.742;2023-05-19T12:58:41;22.00;41.70
80238;DHT22;69544;42.138;24.742;2023-05-19T13:01:13;22.10;41.70
80238;DHT22;69544;42.138;24.742;2023-05-19T13:03:39;22.00;41.60
80238;DHT22;69544;42.138;24.742;2023-05-19T13:06:06;22.10;41.50
80238;DHT22;69544;42.138;24.742;2023-05-19T13:08:32;22.10;41.50
80238;DHT22;69544;42.138;24.742;2023-05-19T13:10:58;22.20;41.40
80238;DHT22;69544;42.138;24.742;2023-05-19T13:13:24;22.20;41.30
80238;DHT22;69544;42.138;24.742;2023-05-19T13:15:49;22.20;41.30
80238;DHT22;69544;42.138;24.742;2023-05-19T13:18:16;22.30;41.20
80238;DHT22;69544;42.138;24.742;2023-05-19T13:20:43;22.30;41.20
80238;DHT22;69544;42.138;24.742;2023-05-19T13:23:10;22.30;41.20
80238;DHT22;69544;42.138;24.742;2023-05-19T13:25:36;22.30;41.10
80238;DHT22;69544;42.138;24.742;2023-05-19T13:28:03;22.30;41.20
80238;DHT22;69544;42.138;24.742;2023-05-19T13:30:38;22.30;41.10
80238;DHT22;69544;42.138;24.742;2023-05-19T13:33:04;22.30;41.20
80238;DHT22;69544;42.138;24.742;2023-05-19T13:35:29;22.30;41.20
80238;DHT22;69544;42.138;24.742;2023-05-19T13:38:10;22.30;41.20
80238;DHT22;69544;42.138;24.742;2023-05-19T13:40:35;22.30;41.20
80238;DHT22;69544;42.138;24.742;2023-05-19T13:43:02;22.30;41.30
80238;DHT22;69544;42.138;24.742;2023-05-19T13:45:28;22.30;41.20
80238;DHT22;69544;42.138;24.742;2023-05-19T13:47:54;22.30;41.20
80238;DHT22;69544;42.138;24.742;2023-05-19T13:50:19;22.30;41.30
80238;DHT22;69544;42.138;24.742;2023-05-19T13:52:45;22.20;41.30
80238;DHT22;69544;42.138;24.742;2023-05-19T13:55:11;22.20;41.40
80238;DHT22;69544;42.138;24.742;2023-05-19T13:57:37;22.10;41.40
80238;DHT22;69544;42.138;24.742;2023-05-19T14:00:03;22.10;41.50
80238;DHT22;69544;42.138;24.742;2023-05-19T14:02:32;22.10;41.50
80238;DHT22;69544;42.138;24.742;2023-05-19T14:04:58;22.00;41.60
80238;DHT22;69544;42.138;24.742;2023-05-19T14:07:23;22.00;41.80
80238;DHT22;69544;42.138;24.742;2023-05-19T14:09:49;22.00;41.80
80238;DHT22;69544;42.138;24.742;2023-05-19T14:12:16;22.10;41.80
80238;DHT22;69544;42.138;24.742;2023-05-19T14:14:42;22.20;41.70
80238;DHT22;69544;42.138;24.742;2023-05-19T14:17:08;22.20;41.60
80238;DHT22;69544;42.138;24.742;2023-05-19T14:19:33;22.30;41.40
80238;DHT22;69544;42.138;24.742;2023-05-19T14:21:59;22.30;41.30
80238;DHT22;69544;42.138;24.742;2023-05-19T14:24:25;22.40;41.20
80238;DHT22;69544;42.138;24.742;2023-05-19T14:26:50;22.40;41.00
80238;DHT22;69544;42.138;24.742;2023-05-19T14:29:18;22.40;40.90
80238;DHT22;69544;42.138;24.742;2023-05-19T14:31:43;22.40;41.00
80238;DHT22;69544;42.138;24.742;2023-05-19T14:34:09;22.40;40.90
80238;DHT22;69544;42.138;24.742;2023-05-19T14:36:34;22.30;41.00
80238;DHT22;69544;42.138;24.742;2023-05-19T14:39:00;22.30;41.10
80238;DHT22;69544;42.138;24.742;2023-05-19T14:41:26;22.20;41.10
80238;DHT22;69544;42.138;24.742;2023-05-19T14:43:52;22.20;41.30
80238;DHT22;69544;42.138;24.742;2023-05-19T14:46:18;22.20;41.40
80238;DHT22;69544;42.138;24.742;2023-05-19T14:48:43;22.10;41.40
80238;DHT22;69544;42.138;24.742;2023-05-19T14:51:09;22.10;41.50
80238;DHT22;69544;42.138;24.742;2023-05-19T14:53:35;22.00;41.60
80238;DHT22;69544;42.138;24.742;2023-05-19T14:56:00;22.00;41.60
80238;DHT22;69544;42.138;24.742;2023-05-19T14:58:28;22.00;41.80
80238;DHT22;69544;42.138;24.742;2023-05-19T15:00:56;21.90;41.70
80238;DHT22;69544;42.138;24.742;2023-05-19T15:03:22;21.90;41.90
80238;DHT22;69544;42.138;24.742;2023-05-19T15:05:48;21.90;41.90
80238;DHT22;69544;42.138;24.742;2023-05-19T15:08:16;21.80;41.90
80238;DHT22;69544;42.138;24.742;2023-05-19T15:10:41;21.80;42.10
80238;DHT22;69544;42.138;24.742;2023-05-19T15:13:07;21.80;42.10
80238;DHT22;69544;42.138;24.742;2023-05-19T15:15:33;21.80;42.20
80238;DHT22;69544;42.138;24.742;2023-05-19T15:17:58;21.70;42.10
80238;DHT22;69544;42.138;24.742;2023-05-19T15:20:24;21.70;42.20
80238;DHT22;69544;42.138;24.742;2023-05-19T15:22:50;21.70;42.30
80238;DHT22;69544;42.138;24.742;2023-05-19T15:25:15;21.60;42.30
80238;DHT22;69544;42.138;24.742;2023-05-19T15:27:41;21.60;42.30
80238;DHT22;69544;42.138;24.742;2023-05-19T15:30:07;21.60;42.40
80238;DHT22;69544;42.138;24.742;2023-05-19T15:32:33;21.60;42.50
80238;DHT22;69544;42.138;24.742;2023-05-19T15:34:58;21.50;42.50
80238;DHT22;69544;42.138;24.742;2023-05-19T15:37:24;21.60;42.50
80238;DHT22;69544;42.138;24.742;2023-05-19T15:39:50;21.50;42.50
80238;DHT22;69544;42.138;24.742;2023-05-19T15:42:16;21.50;42.60
80238;DHT22;69544;42.138;24.742;2023-05-19T15:44:41;21.50;42.50